sensor_id;sensor_type;location;lat;lon;timestamp;temperature;humidity
48686;DHT22;34485;51.536;3.816;2022-12-18T00:03:53;-2.20;99.90
48686;DHT22;34485;51.536;3.816;2022-12-18T00:06:20;-2.30;99.90
48686;DHT22;34485;51.536;3.816;2022-12-18T00:08:46;-2.30;99.90
48686;DHT22;34485;51.536;3.816;2022-12-18T00:11:15;-2.40;99.90
48686;DHT22;34485;51.536;3.816;2022-12-18T00:13:41;-2.40;99.90
48686;DHT22;34485;51.536;3.816;2022-12-18T00:16:09;-2.40;99.90
48686;DHT22;34485;51.536;3.816;2022-12-18T00:21:03;-2.60;99.90
48686;DHT22;34485;51.536;3.816;2022-12-18T00:23:29;-2.60;99.90
48686;DHT22;34485;51.536;3.816;2022-12-18T00:25:59;-2.70;99.90
48686;DHT22;34485;51.536;3.816;2022-12-18T00:28:25;-2.70;99.90
48686;DHT22;34485;51.536;3.816;2022-12-18T00:30:51;-2.60;99.90
48686;DHT22;34485;51.536;3.816;2022-12-18T00:33:17;-2.80;99.90
48686;DHT22;34485;51.536;3.816;2022-12-18T00:35:43;-3.30;99.90
48686;DHT22;34485;51.536;3.816;2022-12-18T00:38:08;-3.50;99.90
48686;DHT22;34485;51.536;3.816;2022-12-18T00:40:34;-3.50;99.90
48686;DHT22;34485;51.536;3.816;2022-12-18T00:43:00;-3.70;99.90
48686;DHT22;34485;51.536;3.816;2022-12-18T01:54:18;-2.80;99.90
48686;DHT22;34485;51.536;3.816;2022-12-18T01:56:44;-2.90;99.90
48686;DHT22;34485;51.536;3.816;2022-12-18T01:59:11;-2.90;99.90
48686;DHT22;34485;51.536;3.816;2022-12-18T02:01:37;-3.00;99.90
48686;DHT22;34485;51.536;3.816;2022-12-18T02:04:22;-3.10;99.90
48686;DHT22;34485;51.536;3.816;2022-12-18T02:06:59;-3.10;99.90
48686;DHT22;34485;51.536;3.816;2022-12-18T02:09:33;-3.10;99.90
48686;DHT22;34485;51.536;3.816;2022-12-18T02:14:55;-3.10;99.90
48686;DHT22;34485;51.536;3.816;2022-12-18T02:17:48;-3.10;99.90
48686;DHT22;34485;51.536;3.816;2022-12-18T02:22:53;-3.10;99.90
48686;DHT22;34485;51.536;3.816;2022-12-18T02:28:06;-3.10;99.90
48686;DHT22;34485;51.536;3.816;2022-12-18T02:30:36;-3.00;99.90
48686;DHT22;34485;51.536;3.816;2022-12-18T02:33:04;-3.00;99.90
48686;DHT22;34485;51.536;3.816;2022-12-18T02:35:32;-3.00;99.90
48686;DHT22;34485;51.536;3.816;2022-12-18T02:37:58;-2.90;99.90
48686;DHT22;34485;51.536;3.816;2022-12-18T02:40:26;-2.90;99.90
48686;DHT22;34485;51.536;3.816;2022-12-18T02:42:52;-2.80;99.90
48686;DHT22;34485;51.536;3.816;2022-12-18T02:45:18;-2.80;99.90
48686;DHT22;34485;51.536;3.816;2022-12-18T02:47:47;-2.80;99.90
48686;DHT22;34485;51.536;3.816;2022-12-18T03:03:45;-3.10;99.90
48686;DHT22;34485;51.536;3.816;2022-12-18T03:06:23;-3.20;99.90
48686;DHT22;34485;51.536;3.816;2022-12-18T03:08:54;-3.20;99.90
48686;DHT22;34485;51.536;3.816;2022-12-18T03:11:23;-3.20;99.90
48686;DHT22;34485;51.536;3.816;2022-12-18T03:14:12;-3.30;99.90
48686;DHT22;34485;51.536;3.816;2022-12-18T03:16:41;-3.40;99.90
48686;DHT22;34485;51.536;3.816;2022-12-18T03:19:13;-3.50;99.90
48686;DHT22;34485;51.536;3.816;2022-12-18T03:21:43;-3.60;99.90
48686;DHT22;34485;51.536;3.816;2022-12-18T03:24:11;-3.60;99.90
48686;DHT22;34485;51.536;3.816;2022-12-18T03:26:40;-3.70;99.90
48686;DHT22;34485;51.536;3.816;2022-12-18T03:29:14;-3.70;99.90
48686;DHT22;34485;51.536;3.816;2022-12-18T03:31:44;-3.70;99.90
48686;DHT22;34485;51.536;3.816;2022-12-18T03:34:15;-3.70;99.90
48686;DHT22;34485;51.536;3.816;2022-12-18T03:36:42;-3.80;99.90
48686;DHT22;34485;51.536;3.816;2022-12-18T03:39:07;-4.00;99.90
48686;DHT22;34485;51.536;3.816;2022-12-18T03:41:53;-4.00;99.90
48686;DHT22;34485;51.536;3.816;2022-12-18T03:47:06;-4.10;99.90
48686;DHT22;34485;51.536;3.816;2022-12-18T03:52:46;-4.20;99.90
48686;DHT22;34485;51.536;3.816;2022-12-18T03:55:14;-4.20;99.90
48686;DHT22;34485;51.536;3.816;2022-12-18T03:57:41;-4.30;99.90
48686;DHT22;34485;51.536;3.816;2022-12-18T04:00:14;-4.30;99.90
48686;DHT22;34485;51.536;3.816;2022-12-18T04:02:53;-4.30;99.90
48686;DHT22;34485;51.536;3.816;2022-12-18T04:05:22;-4.30;99.90
48686;DHT22;34485;51.536;3.816;2022-12-18T04:07:49;-4.30;99.90
48686;DHT22;34485;51.536;3.816;2022-12-18T04:10:17;-4.30;99.90
48686;DHT22;34485;51.536;3.816;2022-12-18T04:12:44;-4.30;99.90
48686;DHT22;34485;51.536;3.816;2022-12-18T04:15:11;-4.30;99.90
48686;DHT22;34485;51.536;3.816;2022-12-18T04:17:37;-4.30;99.90
48686;DHT22;34485;51.536;3.816;2022-12-18T04:20:04;-4.30;99.90
48686;DHT22;34485;51.536;3.816;2022-12-18T04:22:29;-4.40;99.90
48686;DHT22;34485;51.536;3.816;2022-12-18T04:24:55;-4.40;99.90
48686;DHT22;34485;51.536;3.816;2022-12-18T04:27:21;-4.40;99.90
48686;DHT22;34485;51.536;3.816;2022-12-18T04:29:46;-4.40;99.90
48686;DHT22;34485;51.536;3.816;2022-12-18T04:32:12;-4.50;99.90
48686;DHT22;34485;51.536;3.816;2022-12-18T04:34:37;-4.40;99.90
48686;DHT22;34485;51.536;3.816;2022-12-18T04:37:03;-4.30;99.90
48686;DHT22;34485;51.536;3.816;2022-12-18T04:39:29;-4.30;99.90
48686;DHT22;34485;51.536;3.816;2022-12-18T04:41:54;-4.30;99.90
48686;DHT22;34485;51.536;3.816;2022-12-18T04:44:20;-4.30;99.90
48686;DHT22;34485;51.536;3.816;2022-12-18T04:46:45;-4.30;99.90
48686;DHT22;34485;51.536;3.816;2022-12-18T04:49:11;-4.20;99.90
48686;DHT22;34485;51.536;3.816;2022-12-18T04:51:37;-4.20;99.90
48686;DHT22;34485;51.536;3.816;2022-12-18T04:54:03;-4.10;99.90
48686;DHT22;34485;51.536;3.816;2022-12-18T04:56:30;-4.10;99.90
48686;DHT22;34485;51.536;3.816;2022-12-18T04:58:56;-4.00;99.90
48686;DHT22;34485;51.536;3.816;2022-12-18T05:01:22;-3.90;99.90
48686;DHT22;34485;51.536;3.816;2022-12-18T05:03:47;-3.90;99.90
48686;DHT22;34485;51.536;3.816;2022-12-18T05:06:13;-3.90;99.90
48686;DHT22;34485;51.536;3.816;2022-12-18T05:08:39;-3.90;99.90
48686;DHT22;34485;51.536;3.816;2022-12-18T05:11:07;-3.90;99.90
48686;DHT22;34485;51.536;3.816;2022-12-18T05:13:33;-3.90;99.90
48686;DHT22;34485;51.536;3.816;2022-12-18T05:16:00;-3.90;99.90
48686;DHT22;34485;51.536;3.816;2022-12-18T05:18:25;-4.00;99.90
48686;DHT22;34485;51.536;3.816;2022-12-18T05:20:52;-4.00;99.90
48686;DHT22;34485;51.536;3.816;2022-12-18T05:23:18;-4.00;99.90
48686;DHT22;34485;51.536;3.816;2022-12-18T05:25:56;-4.10;99.90
48686;DHT22;34485;51.536;3.816;2022-12-18T05:28:24;-4.10;99.90
48686;DHT22;34485;51.536;3.816;2022-12-18T05:30:50;-4.00;99.90
48686;DHT22;34485;51.536;3.816;2022-12-18T05:33:18;-4.00;99.90
48686;DHT22;34485;51.536;3.816;2022-12-18T05:35:43;-4.00;99.90
48686;DHT22;34485;51.536;3.816;2022-12-18T05:38:09;-4.00;99.90
48686;DHT22;34485;51.536;3.816;2022-12-18T05:40:35;-4.00;99.90
48686;DHT22;34485;51.536;3.816;2022-12-18T05:43:00;-3.90;99.90
48686;DHT22;34485;51.536;3.816;2022-12-18T05:45:26;-3.90;99.90
48686;DHT22;34485;51.536;3.816;2022-12-18T05:47:52;-3.90;99.90
48686;DHT22;34485;51.536;3.816;2022-12-18T05:50:17;-4.00;99.90
48686;DHT22;34485;51.536;3.816;2022-12-18T05:52:43;-3.90;99.90
48686;DHT22;34485;51.536;3.816;2022-12-18T05:55:08;-4.00;99.90
48686;DHT22;34485;51.536;3.816;2022-12-18T05:57:34;-3.90;99.90
48686;DHT22;34485;51.536;3.816;2022-12-18T06:00:00;-3.80;99.90
48686;DHT22;34485;51.536;3.816;2022-12-18T06:02:25;-3.80;99.90
48686;DHT22;34485;51.536;3.816;2022-12-18T06:04:51;-3.70;99.90
48686;DHT22;34485;51.536;3.816;2022-12-18T06:07:16;-3.70;99.90
48686;DHT22;34485;51.536;3.816;2022-12-18T06:09:42;-3.70;99.90
48686;DHT22;34485;51.536;3.816;2022-12-18T06:12:08;-3.70;99.90
48686;DHT22;34485;51.536;3.816;2022-12-18T06:14:33;-3.70;99.90
48686;DHT22;34485;51.536;3.816;2022-12-18T06:16:59;-3.70;99.90
48686;DHT22;34485;51.536;3.816;2022-12-18T06:19:24;-3.80;99.90
48686;DHT22;34485;51.536;3.816;2022-12-18T06:21:50;-3.90;99.90
48686;DHT22;34485;51.536;3.816;2022-12-18T06:24:16;-3.90;99.90
48686;DHT22;34485;51.536;3.816;2022-12-18T06:26:42;-3.80;99.90
48686;DHT22;34485;51.536;3.816;2022-12-18T06:29:07;-3.80;99.90
48686;DHT22;34485;51.536;3.816;2022-12-18T06:31:33;-3.80;99.90
48686;DHT22;34485;51.536;3.816;2022-12-18T06:34:01;-3.80;99.90
48686;DHT22;34485;51.536;3.816;2022-12-18T06:36:26;-3.80;99.90
48686;DHT22;34485;51.536;3.816;2022-12-18T06:38:52;-3.90;99.90
48686;DHT22;34485;51.536;3.816;2022-12-18T06:41:19;-3.90;99.90
48686;DHT22;34485;51.536;3.816;2022-12-18T06:43:45;-3.90;99.90
48686;DHT22;34485;51.536;3.816;2022-12-18T06:46:12;-3.90;99.90
48686;DHT22;34485;51.536;3.816;2022-12-18T06:48:38;-4.00;99.90
48686;DHT22;34485;51.536;3.816;2022-12-18T06:51:04;-4.00;99.90
48686;DHT22;34485;51.536;3.816;2022-12-18T06:53:29;-4.00;99.90
48686;DHT22;34485;51.536;3.816;2022-12-18T06:56:07;-4.00;99.90
48686;DHT22;34485;51.536;3.816;2022-12-18T06:58:33;-4.00;99.90
48686;DHT22;34485;51.536;3.816;2022-12-18T07:01:06;-4.00;99.90
48686;DHT22;34485;51.536;3.816;2022-12-18T07:03:33;-3.90;99.90
48686;DHT22;34485;51.536;3.816;2022-12-18T07:05:58;-3.90;99.90
48686;DHT22;34485;51.536;3.816;2022-12-18T07:08:25;-3.90;99.90
48686;DHT22;34485;51.536;3.816;2022-12-18T07:10:50;-3.90;99.90
48686;DHT22;34485;51.536;3.816;2022-12-18T07:13:16;-4.00;99.90
48686;DHT22;34485;51.536;3.816;2022-12-18T07:15:42;-4.00;99.90
48686;DHT22;34485;51.536;3.816;2022-12-18T07:18:08;-3.90;99.90
48686;DHT22;34485;51.536;3.816;2022-12-18T07:20:34;-3.90;99.90
48686;DHT22;34485;51.536;3.816;2022-12-18T07:23:04;-3.90;99.90
48686;DHT22;34485;51.536;3.816;2022-12-18T07:25:34;-3.90;99.90
48686;DHT22;34485;51.536;3.816;2022-12-18T07:28:00;-3.90;99.90
48686;DHT22;34485;51.536;3.816;2022-12-18T07:30:26;-3.90;99.90
48686;DHT22;34485;51.536;3.816;2022-12-18T07:32:51;-3.80;99.90
48686;DHT22;34485;51.536;3.816;2022-12-18T07:35:17;-3.90;99.90
48686;DHT22;34485;51.536;3.816;2022-12-18T07:37:42;-3.90;99.90
48686;DHT22;34485;51.536;3.816;2022-12-18T07:40:08;-4.00;99.90
48686;DHT22;34485;51.536;3.816;2022-12-18T07:42:34;-3.90;99.90
48686;DHT22;34485;51.536;3.816;2022-12-18T07:45:02;-3.80;99.90
48686;DHT22;34485;51.536;3.816;2022-12-18T07:47:28;-3.70;99.90
48686;DHT22;34485;51.536;3.816;2022-12-18T07:49:54;-3.60;99.90
48686;DHT22;34485;51.536;3.816;2022-12-18T07:52:20;-3.60;99.90
48686;DHT22;34485;51.536;3.816;2022-12-18T07:54:45;-3.60;99.90
48686;DHT22;34485;51.536;3.816;2022-12-18T07:57:14;-3.60;99.90
48686;DHT22;34485;51.536;3.816;2022-12-18T07:59:39;-3.60;99.90
48686;DHT22;34485;51.536;3.816;2022-12-18T08:02:05;-3.60;99.90
48686;DHT22;34485;51.536;3.816;2022-12-18T08:04:31;-3.60;99.90
48686;DHT22;34485;51.536;3.816;2022-12-18T08:06:56;-3.60;99.90
48686;DHT22;34485;51.536;3.816;2022-12-18T08:09:22;-3.50;99.90
48686;DHT22;34485;51.536;3.816;2022-12-18T08:11:48;-3.40;99.90
48686;DHT22;34485;51.536;3.816;2022-12-18T08:14:13;-3.20;99.90
48686;DHT22;34485;51.536;3.816;2022-12-18T08:16:39;-3.10;99.90
48686;DHT22;34485;51.536;3.816;2022-12-18T08:19:05;-3.00;99.90
48686;DHT22;34485;51.536;3.816;2022-12-18T08:33:52;-2.00;99.90
48686;DHT22;34485;51.536;3.816;2022-12-18T08:36:19;-2.00;99.90
48686;DHT22;34485;51.536;3.816;2022-12-18T08:38:45;-1.90;99.90
48686;DHT22;34485;51.536;3.816;2022-12-18T08:41:13;-1.90;99.90
48686;DHT22;34485;51.536;3.816;2022-12-18T08:43:39;-1.90;99.90
48686;DHT22;34485;51.536;3.816;2022-12-18T08:46:25;-1.80;99.90
48686;DHT22;34485;51.536;3.816;2022-12-18T08:48:51;-1.80;99.90
48686;DHT22;34485;51.536;3.816;2022-12-18T08:51:18;-1.70;99.90
48686;DHT22;34485;51.536;3.816;2022-12-18T08:53:44;-1.70;99.90
48686;DHT22;34485;51.536;3.816;2022-12-18T08:56:10;-1.70;99.90
48686;DHT22;34485;51.536;3.816;2022-12-18T08:58:36;-1.60;99.90
48686;DHT22;34485;51.536;3.816;2022-12-18T09:01:02;-1.60;99.90
48686;DHT22;34485;51.536;3.816;2022-12-18T09:03:29;-1.50;99.90
48686;DHT22;34485;51.536;3.816;2022-12-18T09:05:54;-1.50;99.90
48686;DHT22;34485;51.536;3.816;2022-12-18T09:08:20;-1.40;99.90
48686;DHT22;34485;51.536;3.816;2022-12-18T09:10:47;-1.40;99.90
48686;DHT22;34485;51.536;3.816;2022-12-18T09:13:14;-1.30;99.90
48686;DHT22;34485;51.536;3.816;2022-12-18T09:15:46;-1.30;99.90
48686;DHT22;34485;51.536;3.816;2022-12-18T09:18:12;-1.30;99.90
48686;DHT22;34485;51.536;3.816;2022-12-18T09:20:39;-1.20;99.90
48686;DHT22;34485;51.536;3.816;2022-12-18T09:23:05;-1.20;99.90
48686;DHT22;34485;51.536;3.816;2022-12-18T09:25:31;-1.20;99.90
48686;DHT22;34485;51.536;3.816;2022-12-18T09:27:59;-1.10;99.90
48686;DHT22;34485;51.536;3.816;2022-12-18T09:30:26;-1.10;99.90
48686;DHT22;34485;51.536;3.816;2022-12-18T09:32:53;-1.10;99.90
48686;DHT22;34485;51.536;3.816;2022-12-18T09:35:18;-1.00;99.90
48686;DHT22;34485;51.536;3.816;2022-12-18T09:37:44;-1.00;99.90
48686;DHT22;34485;51.536;3.816;2022-12-18T09:40:18;-0.90;99.90
48686;DHT22;34485;51.536;3.816;2022-12-18T09:42:47;-0.90;99.90
48686;DHT22;34485;51.536;3.816;2022-12-18T09:45:14;-0.90;99.90
48686;DHT22;34485;51.536;3.816;2022-12-18T09:47:42;-0.80;99.90
48686;DHT22;34485;51.536;3.816;2022-12-18T09:50:30;-0.80;99.90
48686;DHT22;34485;51.536;3.816;2022-12-18T09:52:59;-0.70;99.90
48686;DHT22;34485;51.536;3.816;2022-12-18T09:55:35;-0.80;99.90
48686;DHT22;34485;51.536;3.816;2022-12-18T09:58:24;-0.70;99.90
48686;DHT22;34485;51.536;3.816;2022-12-18T10:00:53;-0.60;99.90
48686;DHT22;34485;51.536;3.816;2022-12-18T10:03:19;-0.60;99.90
48686;DHT22;34485;51.536;3.816;2022-12-18T10:06:13;-0.60;99.90
48686;DHT22;34485;51.536;3.816;2022-12-18T10:14:20;-0.50;99.90
48686;DHT22;34485;51.536;3.816;2022-12-18T10:20:04;-0.50;99.90
48686;DHT22;34485;51.536;3.816;2022-12-18T10:25:34;-0.50;99.90
48686;DHT22;34485;51.536;3.816;2022-12-18T10:28:16;-0.50;99.90
48686;DHT22;34485;51.536;3.816;2022-12-18T10:30:43;-0.50;99.90
48686;DHT22;34485;51.536;3.816;2022-12-18T10:33:14;-0.50;99.90
48686;DHT22;34485;51.536;3.816;2022-12-18T10:35:42;-0.50;99.90
48686;DHT22;34485;51.536;3.816;2022-12-18T10:41:04;-0.40;99.90
48686;DHT22;34485;51.536;3.816;2022-12-18T10:43:39;-0.40;99.90
48686;DHT22;34485;51.536;3.816;2022-12-18T10:48:47;-0.40;99.90
48686;DHT22;34485;51.536;3.816;2022-12-18T10:51:21;-0.30;99.90
48686;DHT22;34485;51.536;3.816;2022-12-18T10:53:54;-0.30;99.90
48686;DHT22;34485;51.536;3.816;2022-12-18T10:56:21;-0.30;99.90
48686;DHT22;34485;51.536;3.816;2022-12-18T10:59:15;-0.40;99.90
48686;DHT22;34485;51.536;3.816;2022-12-18T11:01:53;-0.40;99.90
48686;DHT22;34485;51.536;3.816;2022-12-18T11:04:28;-0.40;99.90
48686;DHT22;34485;51.536;3.816;2022-12-18T11:07:08;-0.40;99.90
48686;DHT22;34485;51.536;3.816;2022-12-18T11:09:38;-0.40;99.90
48686;DHT22;34485;51.536;3.816;2022-12-18T11:12:18;-0.40;99.90
48686;DHT22;34485;51.536;3.816;2022-12-18T11:14:49;-0.30;99.90
48686;DHT22;34485;51.536;3.816;2022-12-18T11:17:19;-0.30;99.90
48686;DHT22;34485;51.536;3.816;2022-12-18T11:19:55;-0.30;99.90
48686;DHT22;34485;51.536;3.816;2022-12-18T11:22:23;-0.30;99.90
48686;DHT22;34485;51.536;3.816;2022-12-18T11:24:55;-0.30;99.90
48686;DHT22;34485;51.536;3.816;2022-12-18T11:27:21;-0.30;99.90
48686;DHT22;34485;51.536;3.816;2022-12-18T11:29:50;-0.30;99.90
48686;DHT22;34485;51.536;3.816;2022-12-18T11:32:37;-0.30;99.90
48686;DHT22;34485;51.536;3.816;2022-12-18T11:35:37;-0.30;99.90
48686;DHT22;34485;51.536;3.816;2022-12-18T11:40:40;-0.20;99.90
48686;DHT22;34485;51.536;3.816;2022-12-18T11:43:17;-0.20;99.90
48686;DHT22;34485;51.536;3.816;2022-12-18T11:46:07;-0.10;99.90
48686;DHT22;34485;51.536;3.816;2022-12-18T11:49:06;-0.10;99.90
48686;DHT22;34485;51.536;3.816;2022-12-18T11:54:31;-0.10;99.90
48686;DHT22;34485;51.536;3.816;2022-12-18T12:12:52;-0.20;99.90
48686;DHT22;34485;51.536;3.816;2022-12-18T12:18:21;-0.20;99.90
48686;DHT22;34485;51.536;3.816;2022-12-18T12:21:02;-0.20;99.90
48686;DHT22;34485;51.536;3.816;2022-12-18T12:26:38;-0.20;99.90
48686;DHT22;34485;51.536;3.816;2022-12-18T12:37:51;-0.20;99.90
48686;DHT22;34485;51.536;3.816;2022-12-18T12:40:19;-0.20;99.90
48686;DHT22;34485;51.536;3.816;2022-12-18T12:42:54;-0.20;99.90
48686;DHT22;34485;51.536;3.816;2022-12-18T12:48:47;-0.20;99.90
48686;DHT22;34485;51.536;3.816;2022-12-18T12:51:26;-0.20;99.90
48686;DHT22;34485;51.536;3.816;2022-12-18T12:53:55;-0.20;99.90
48686;DHT22;34485;51.536;3.816;2022-12-18T12:56:22;-0.20;99.90
48686;DHT22;34485;51.536;3.816;2022-12-18T12:59:15;-0.20;99.90
48686;DHT22;34485;51.536;3.816;2022-12-18T13:02:03;-0.20;99.90
48686;DHT22;34485;51.536;3.816;2022-12-18T13:04:41;-0.20;99.90
48686;DHT22;34485;51.536;3.816;2022-12-18T13:07:26;-0.20;99.90
48686;DHT22;34485;51.536;3.816;2022-12-18T13:15:25;-0.10;99.90
48686;DHT22;34485;51.536;3.816;2022-12-18T13:20:49;-0.20;99.90
48686;DHT22;34485;51.536;3.816;2022-12-18T13:23:35;-0.20;99.90
48686;DHT22;34485;51.536;3.816;2022-12-18T13:31:02;-0.20;99.90
48686;DHT22;34485;51.536;3.816;2022-12-18T13:36:03;-0.20;99.90
48686;DHT22;34485;51.536;3.816;2022-12-18T13:38:35;-0.20;99.90
48686;DHT22;34485;51.536;3.816;2022-12-18T13:41:21;-0.20;99.90
48686;DHT22;34485;51.536;3.816;2022-12-18T13:43:49;-0.20;99.90
48686;DHT22;34485;51.536;3.816;2022-12-18T13:46:43;-0.20;99.90
48686;DHT22;34485;51.536;3.816;2022-12-18T13:52:00;-0.20;99.90
48686;DHT22;34485;51.536;3.816;2022-12-18T13:54:34;-0.20;99.90
48686;DHT22;34485;51.536;3.816;2022-12-18T13:57:01;-0.20;99.90
48686;DHT22;34485;51.536;3.816;2022-12-18T13:59:36;-0.20;99.90
48686;DHT22;34485;51.536;3.816;2022-12-18T14:02:23;-0.20;99.90
48686;DHT22;34485;51.536;3.816;2022-12-18T14:04:49;-0.20;99.90
48686;DHT22;34485;51.536;3.816;2022-12-18T14:09:52;-0.20;99.90
48686;DHT22;34485;51.536;3.816;2022-12-18T14:12:29;-0.20;99.90
48686;DHT22;34485;51.536;3.816;2022-12-18T14:15:25;-0.20;99.90
48686;DHT22;34485;51.536;3.816;2022-12-18T14:18:25;-0.20;99.90
48686;DHT22;34485;51.536;3.816;2022-12-18T14:20:52;-0.20;99.90
48686;DHT22;34485;51.536;3.816;2022-12-18T14:23:36;-0.20;99.90
48686;DHT22;34485;51.536;3.816;2022-12-18T14:26:23;-0.20;99.90
48686;DHT22;34485;51.536;3.816;2022-12-18T14:28:49;-0.20;99.90
48686;DHT22;34485;51.536;3.816;2022-12-18T14:31:20;-0.20;99.90
48686;DHT22;34485;51.536;3.816;2022-12-18T14:33:47;-0.20;99.90
48686;DHT22;34485;51.536;3.816;2022-12-18T14:36:16;-0.20;99.90
48686;DHT22;34485;51.536;3.816;2022-12-18T14:38:42;-0.20;99.90
48686;DHT22;34485;51.536;3.816;2022-12-18T14:41:16;-0.20;99.90
48686;DHT22;34485;51.536;3.816;2022-12-18T14:43:45;-0.20;99.90
48686;DHT22;34485;51.536;3.816;2022-12-18T14:46:36;-0.20;99.90
48686;DHT22;34485;51.536;3.816;2022-12-18T14:51:59;-0.20;99.90
48686;DHT22;34485;51.536;3.816;2022-12-18T14:54:26;-0.20;99.90
48686;DHT22;34485;51.536;3.816;2022-12-18T14:59:30;-0.20;99.90
48686;DHT22;34485;51.536;3.816;2022-12-18T15:04:39;-0.10;99.90
48686;DHT22;34485;51.536;3.816;2022-12-18T15:07:11;-0.10;99.90
48686;DHT22;34485;51.536;3.816;2022-12-18T15:09:39;-0.10;99.90
48686;DHT22;34485;51.536;3.816;2022-12-18T15:12:15;-0.10;99.90
48686;DHT22;34485;51.536;3.816;2022-12-18T15:14:43;-0.10;99.90
48686;DHT22;34485;51.536;3.816;2022-12-18T15:17:19;-0.10;99.90
48686;DHT22;34485;51.536;3.816;2022-12-18T15:19:46;-0.10;99.90
48686;DHT22;34485;51.536;3.816;2022-12-18T15:22:28;-0.10;99.90
48686;DHT22;34485;51.536;3.816;2022-12-18T15:24:55;-0.10;99.90
48686;DHT22;34485;51.536;3.816;2022-12-18T15:27:31;-0.10;99.90
48686;DHT22;34485;51.536;3.816;2022-12-18T15:30:24;0.00;99.90
48686;DHT22;34485;51.536;3.816;2022-12-18T15:32:49;0.00;99.90
48686;DHT22;34485;51.536;3.816;2022-12-18T15:37:41;0.00;99.90
48686;DHT22;34485;51.536;3.816;2022-12-18T15:40:12;0.00;99.90
48686;DHT22;34485;51.536;3.816;2022-12-18T15:42:37;0.10;99.90
48686;DHT22;34485;51.536;3.816;2022-12-18T15:45:22;0.00;99.90
48686;DHT22;34485;51.536;3.816;2022-12-18T15:47:47;0.00;99.90
48686;DHT22;34485;51.536;3.816;2022-12-18T15:50:13;0.10;99.90
48686;DHT22;34485;51.536;3.816;2022-12-18T15:52:44;0.10;99.90
48686;DHT22;34485;51.536;3.816;2022-12-18T15:55:12;0.10;99.90
48686;DHT22;34485;51.536;3.816;2022-12-18T15:57:56;0.10;99.90
48686;DHT22;34485;51.536;3.816;2022-12-18T16:00:22;0.10;99.90
48686;DHT22;34485;51.536;3.816;2022-12-18T16:02:47;0.10;99.90
48686;DHT22;34485;51.536;3.816;2022-12-18T16:05:18;0.10;99.90
48686;DHT22;34485;51.536;3.816;2022-12-18T16:07:44;0.10;99.90
48686;DHT22;34485;51.536;3.816;2022-12-18T16:10:10;0.20;99.90
48686;DHT22;34485;51.536;3.816;2022-12-18T16:12:36;0.20;99.90
48686;DHT22;34485;51.536;3.816;2022-12-18T16:15:03;0.20;99.90
48686;DHT22;34485;51.536;3.816;2022-12-18T16:17:29;0.20;99.90
48686;DHT22;34485;51.536;3.816;2022-12-18T16:19:55;0.20;99.90
48686;DHT22;34485;51.536;3.816;2022-12-18T16:22:26;0.20;99.90
48686;DHT22;34485;51.536;3.816;2022-12-18T16:24:53;0.20;99.90
48686;DHT22;34485;51.536;3.816;2022-12-18T16:27:20;0.20;99.90
48686;DHT22;34485;51.536;3.816;2022-12-18T16:29:46;0.20;99.90
48686;DHT22;34485;51.536;3.816;2022-12-18T16:32:14;0.20;99.90
48686;DHT22;34485;51.536;3.816;2022-12-18T16:34:41;0.30;99.90
48686;DHT22;34485;51.536;3.816;2022-12-18T16:37:08;0.30;99.90
48686;DHT22;34485;51.536;3.816;2022-12-18T16:39:34;0.30;99.90
48686;DHT22;34485;51.536;3.816;2022-12-18T16:42:12;0.30;99.90
48686;DHT22;34485;51.536;3.816;2022-12-18T16:44:40;0.40;99.90
48686;DHT22;34485;51.536;3.816;2022-12-18T16:47:05;0.40;99.90
48686;DHT22;34485;51.536;3.816;2022-12-18T16:49:31;0.40;99.90
48686;DHT22;34485;51.536;3.816;2022-12-18T16:51:57;0.40;99.90
48686;DHT22;34485;51.536;3.816;2022-12-18T16:54:23;0.40;99.90
48686;DHT22;34485;51.536;3.816;2022-12-18T16:56:50;0.50;99.90
48686;DHT22;34485;51.536;3.816;2022-12-18T16:59:16;0.50;99.90
48686;DHT22;34485;51.536;3.816;2022-12-18T17:01:42;0.50;99.90
48686;DHT22;34485;51.536;3.816;2022-12-18T17:04:08;0.50;99.90
48686;DHT22;34485;51.536;3.816;2022-12-18T17:06:38;0.50;99.90
48686;DHT22;34485;51.536;3.816;2022-12-18T17:09:06;0.40;99.90
48686;DHT22;34485;51.536;3.816;2022-12-18T17:11:34;0.50;99.90
48686;DHT22;34485;51.536;3.816;2022-12-18T17:14:04;0.40;99.90
48686;DHT22;34485;51.536;3.816;2022-12-18T17:16:30;0.50;99.90
48686;DHT22;34485;51.536;3.816;2022-12-18T17:18:56;0.40;99.90
48686;DHT22;34485;51.536;3.816;2022-12-18T17:21:21;0.40;99.90
48686;DHT22;34485;51.536;3.816;2022-12-18T17:23:47;0.40;99.90
48686;DHT22;34485;51.536;3.816;2022-12-18T17:26:13;0.40;99.90
48686;DHT22;34485;51.536;3.816;2022-12-18T17:28:39;0.40;99.90
48686;DHT22;34485;51.536;3.816;2022-12-18T17:31:20;0.40;99.90
48686;DHT22;34485;51.536;3.816;2022-12-18T17:33:45;0.40;99.90
48686;DHT22;34485;51.536;3.816;2022-12-18T17:36:11;0.50;99.90
48686;DHT22;34485;51.536;3.816;2022-12-18T17:38:37;0.50;99.90
48686;DHT22;34485;51.536;3.816;2022-12-18T17:41:05;0.40;99.90
48686;DHT22;34485;51.536;3.816;2022-12-18T17:43:32;0.40;99.90
48686;DHT22;34485;51.536;3.816;2022-12-18T17:46:04;0.50;99.90
48686;DHT22;34485;51.536;3.816;2022-12-18T17:48:31;0.50;99.90
48686;DHT22;34485;51.536;3.816;2022-12-18T17:51:04;0.40;99.90
48686;DHT22;34485;51.536;3.816;2022-12-18T17:53:30;0.50;99.90
48686;DHT22;34485;51.536;3.816;2022-12-18T17:55:58;0.50;99.90
48686;DHT22;34485;51.536;3.816;2022-12-18T17:58:28;0.50;99.90
48686;DHT22;34485;51.536;3.816;2022-12-18T18:00:54;0.50;99.90
48686;DHT22;34485;51.536;3.816;2022-12-18T18:03:23;0.50;99.90
48686;DHT22;34485;51.536;3.816;2022-12-18T18:06:02;0.50;99.90
48686;DHT22;34485;51.536;3.816;2022-12-18T18:08:28;0.50;99.90
48686;DHT22;34485;51.536;3.816;2022-12-18T19:22:54;0.90;99.90
48686;DHT22;34485;51.536;3.816;2022-12-18T19:25:20;0.90;99.90
48686;DHT22;34485;51.536;3.816;2022-12-18T19:37:30;1.00;99.90
48686;DHT22;34485;51.536;3.816;2022-12-18T19:42:22;0.90;99.90
48686;DHT22;34485;51.536;3.816;2022-12-18T19:44:47;0.90;99.90
48686;DHT22;34485;51.536;3.816;2022-12-18T19:47:13;0.90;99.90
48686;DHT22;34485;51.536;3.816;2022-12-18T19:49:38;0.90;99.90
48686;DHT22;34485;51.536;3.816;2022-12-18T19:52:04;1.00;99.90
48686;DHT22;34485;51.536;3.816;2022-12-18T19:54:30;1.00;99.90
48686;DHT22;34485;51.536;3.816;2022-12-18T20:50:58;1.30;99.90
48686;DHT22;34485;51.536;3.816;2022-12-18T20:53:24;1.20;99.90
48686;DHT22;34485;51.536;3.816;2022-12-18T20:55:50;1.30;99.90
48686;DHT22;34485;51.536;3.816;2022-12-18T21:17:44;1.50;99.90
48686;DHT22;34485;51.536;3.816;2022-12-18T21:20:11;1.60;99.90
48686;DHT22;34485;51.536;3.816;2022-12-18T21:22:37;1.60;99.90
48686;DHT22;34485;51.536;3.816;2022-12-18T21:25:03;1.60;99.90
48686;DHT22;34485;51.536;3.816;2022-12-18T21:27:29;1.60;99.90
48686;DHT22;34485;51.536;3.816;2022-12-18T21:29:55;1.60;99.90
48686;DHT22;34485;51.536;3.816;2022-12-18T21:32:20;1.60;99.90
48686;DHT22;34485;51.536;3.816;2022-12-18T21:34:46;1.70;99.90
48686;DHT22;34485;51.536;3.816;2022-12-18T21:37:11;1.70;99.90
48686;DHT22;34485;51.536;3.816;2022-12-18T21:39:37;1.70;99.90
48686;DHT22;34485;51.536;3.816;2022-12-18T21:42:03;1.70;99.90
48686;DHT22;34485;51.536;3.816;2022-12-18T21:44:47;1.70;99.90
48686;DHT22;34485;51.536;3.816;2022-12-18T21:47:14;1.80;99.90
48686;DHT22;34485;51.536;3.816;2022-12-18T21:49:39;1.80;99.90